aviador You're here:

PAQT Decoded Metar

NUIQSUT in AK, USA
Report Time2017-09-20 11:53:00
UTC Time2017-09-20 13:00:33
Flight Rules Old
Wind340° at 04 kt
W.Decomp.*RWY 23: 0.1 kt HW 4.0 kt RCW
W.Rank340° ranks 26
Current wind is below 340° avg. (5.9)
Visibility9999 m
Phenomena:N/A
Clouds:Few 012 Hf
Broken 032 Hf
Overcast 110 Hf
Expected CloudBase > 400 ft AGL from Temp-Dew spread
Ceiling3,200 ft
Temp01°C (ISA -14)
Dew Point00°C (93% RH)
AAT-2.4°C
QNH1024 hPa
Density Alt-1,949 ft
Elevation39 ft
Report Wrong Elevation
Raw Report
PAQT 201153Z AUTO 34004KT 10SM FEW012 BKN032 OVC110 01/00 A3024
RMK AO2 SLP241 70022 T00060000 10006 20000 52011 TSNO=

Extra information for PAQT:More info

Metar Taf Metar & Taf Last 4 Metars F.Rules Stats Wind Profile Meteogram Temp Stats Airport Information Weather charts Add Link Nearby VenuesMetar ALERT Operation Metar Decoded Social comments

AIRNAV info for PAQT